createdAt,value
2022-11-09T00:05:01.451Z,32.60
2022-11-09T00:13:09.498Z,33.97
2022-11-09T00:21:17.022Z,33.45
2022-11-09T00:29:25.326Z,26.90
2022-11-09T00:37:32.929Z,30.73
2022-11-09T00:45:41.275Z,28.27
2022-11-09T00:53:48.528Z,29.73
2022-11-09T01:01:56.936Z,25.88
2022-11-09T01:10:02.667Z,23.90
2022-11-09T01:18:11.214Z,27.10
2022-11-09T01:26:18.424Z,30.48
2022-11-09T01:34:27.169Z,23.42
2022-11-09T01:42:33.033Z,21.55
2022-11-09T01:50:52.300Z,19.35
2022-11-09T01:59:02.301Z,25.15
2022-11-09T02:07:11.859Z,22.40
2022-11-09T02:15:18.473Z,20.17
2022-11-09T02:23:28.328Z,21.88
2022-11-09T02:31:37.455Z,22.40
2022-11-09T02:39:45.655Z,21.98
2022-11-09T02:47:54.126Z,22.25
2022-11-09T02:56:02.546Z,21.83
2022-11-09T03:04:08.617Z,18.52
2022-11-09T03:12:29.923Z,18.50
2022-11-09T03:20:42.848Z,21.40
2022-11-09T03:28:51.343Z,20.70
2022-11-09T03:36:57.133Z,18.13
2022-11-09T03:45:05.870Z,20.25
2022-11-09T03:53:12.615Z,23.60
2022-11-09T04:01:20.789Z,17.98
2022-11-09T04:09:26.283Z,18.17
2022-11-09T04:17:34.432Z,22.70
2022-11-09T04:25:41.345Z,17.38
2022-11-09T04:33:53.326Z,20.52
2022-11-09T04:41:58.978Z,23.42
2022-11-09T04:50:20.845Z,16.65
2022-11-09T04:58:47.747Z,15.00
2022-11-09T05:06:55.810Z,15.55
2022-11-09T05:15:01.662Z,14.40
2022-11-09T05:23:22.605Z,17.45
2022-11-09T05:31:28.772Z,17.90
2022-11-09T05:39:39.916Z,22.08
2022-11-09T05:47:46.810Z,16.77
2022-11-09T05:55:55.283Z,16.17
2022-11-09T06:04:00.819Z,15.30
2022-11-09T06:12:10.647Z,15.52
2022-11-09T06:20:16.276Z,16.35
2022-11-09T06:28:25.864Z,19.27
2022-11-09T06:36:31.348Z,16.25
2022-11-09T06:44:39.485Z,18.80
2022-11-09T06:52:46.138Z,15.95
2022-11-09T07:00:55.214Z,16.67
2022-11-09T07:09:03.486Z,17.35
2022-11-09T07:17:09.142Z,20.52
2022-11-09T07:25:17.373Z,18.88
2022-11-09T07:33:23.994Z,14.48
2022-11-09T07:41:34.917Z,20.23
2022-11-09T07:49:40.614Z,23.55
2022-11-09T07:57:48.526Z,16.08
2022-11-09T08:05:54.248Z,22.17
2022-11-09T08:14:02.203Z,15.38
2022-11-09T08:22:07.477Z,17.92
2022-11-09T08:30:18.474Z,16.88
2022-11-09T08:38:24.408Z,19.50
2022-11-09T08:46:37.028Z,16.45
2022-11-09T08:54:47.835Z,16.98
2022-11-09T09:02:55.914Z,18.35
2022-11-09T09:11:04.440Z,18.67
2022-11-09T09:19:12.505Z,15.40
2022-11-09T09:27:17.961Z,17.73
2022-11-09T09:35:26.026Z,24.45
2022-11-09T09:43:39.728Z,16.38
2022-11-09T09:51:54.995Z,17.73
2022-11-09T10:00:04.341Z,19.10
2022-11-09T10:08:30.386Z,22.05
2022-11-09T10:16:44.047Z,20.13
2022-11-09T10:25:20.697Z,21.30
2022-11-09T10:33:25.721Z,22.13
2022-11-09T10:41:40.232Z,25.10
2022-11-09T10:50:20.527Z,22.37
2022-11-09T10:58:51.234Z,28.98
2022-11-09T11:07:20.957Z,26.55
2022-11-09T11:15:48.973Z,26.52
2022-11-09T11:24:17.224Z,23.73
2022-11-09T11:32:48.960Z,24.52
2022-11-09T11:41:38.634Z,25.00
2022-11-09T11:50:28.103Z,28.25
2022-11-09T11:59:09.887Z,31.10
2022-11-09T12:07:44.945Z,26.00
2022-11-09T12:16:14.347Z,30.42
2022-11-09T12:24:46.580Z,26.52
2022-11-09T12:33:15.442Z,29.17
2022-11-09T12:41:43.598Z,27.00
2022-11-09T12:50:09.373Z,27.65
2022-11-09T12:58:37.871Z,25.40
2022-11-09T13:07:20.979Z,25.45
2022-11-09T13:16:22.234Z,32.00
2022-11-09T13:24:55.851Z,28.90
2022-11-09T13:33:29.781Z,28.58
2022-11-09T13:41:53.948Z,24.27
2022-11-09T13:50:25.318Z,27.38
2022-11-09T13:58:51.229Z,25.88
2022-11-09T14:07:23.422Z,29.25
2022-11-09T14:15:54.733Z,30.08
2022-11-09T14:24:24.302Z,32.53
2022-11-09T14:32:54.270Z,30.20
2022-11-09T14:41:25.766Z,33.28
2022-11-09T14:49:49.978Z,32.92
2022-11-09T14:58:18.207Z,27.98
2022-11-09T15:06:49.129Z,53.22
2022-11-09T15:15:27.270Z,55.13
2022-11-09T15:23:52.901Z,48.35
2022-11-09T15:32:23.956Z,41.63
2022-11-09T15:40:47.982Z,43.05
2022-11-09T15:49:24.311Z,33.88
2022-11-09T15:57:48.621Z,30.83
2022-11-09T16:06:22.459Z,29.83
2022-11-09T16:14:46.456Z,30.85
2022-11-09T16:23:12.910Z,40.15
2022-11-09T16:31:52.791Z,39.53
2022-11-09T16:40:20.154Z,53.63
2022-11-09T16:48:44.031Z,62.28
2022-11-09T16:57:10.914Z,63.10
2022-11-09T17:05:34.900Z,61.60
2022-11-09T17:14:02.729Z,60.67
2022-11-09T17:22:26.650Z,61.83
2022-11-09T17:30:57.638Z,56.75
2022-11-09T17:39:21.949Z,54.90
2022-11-09T17:47:48.647Z,45.65
2022-11-09T17:56:28.799Z,42.30
2022-11-09T18:04:55.663Z,52.25
2022-11-09T18:13:27.703Z,44.63
2022-11-09T18:21:56.009Z,51.28
2022-11-09T18:30:20.623Z,42.85
2022-11-09T18:38:47.845Z,51.00
2022-11-09T18:47:13.834Z,56.95
2022-11-09T18:55:40.536Z,51.75
2022-11-09T19:04:04.517Z,33.58
2022-11-09T19:12:32.821Z,31.98
2022-11-09T19:21:04.300Z,33.08
2022-11-09T19:29:31.035Z,34.33
2022-11-09T19:37:55.089Z,57.63
2022-11-09T19:46:21.781Z,53.88
2022-11-09T19:54:45.816Z,53.40
2022-11-09T20:03:12.819Z,45.78
2022-11-09T20:11:49.473Z,39.58
2022-11-09T20:20:17.643Z,48.03
2022-11-09T20:28:41.846Z,48.38
2022-11-09T20:37:08.733Z,38.28
2022-11-09T20:45:33.552Z,39.28
2022-11-09T20:54:06.577Z,41.03
2022-11-09T21:02:31.528Z,40.97
2022-11-09T21:10:58.353Z,41.10
2022-11-09T21:19:22.183Z,38.78
2022-11-09T21:28:01.396Z,42.03
2022-11-09T21:36:25.526Z,41.83
2022-11-09T21:44:52.092Z,42.33
2022-11-09T21:53:16.198Z,38.50
2022-11-09T22:01:43.103Z,41.28
2022-11-09T22:10:11.528Z,34.08
2022-11-09T22:18:51.297Z,31.85
2022-11-09T22:27:15.429Z,37.55
2022-11-09T22:35:42.094Z,37.83
2022-11-09T22:44:06.267Z,32.70
2022-11-09T22:52:32.799Z,32.08
2022-11-09T23:00:56.843Z,34.75
2022-11-09T23:09:23.416Z,34.53
2022-11-09T23:17:59.581Z,29.92
2022-11-09T23:26:27.253Z,29.38
2022-11-09T23:34:51.396Z,34.65
2022-11-09T23:51:41.424Z,25.98
